sensor_id;sensor_type;location;lat;lon;timestamp;P1;durP1;ratioP1;P2;durP2;ratioP2
12059;SDS011;6091;51.432;6.880;2023-08-12T00:01:23;2.60;;;2.40;;
12059;SDS011;6091;51.432;6.880;2023-08-12T00:03:51;2.58;;;2.28;;
12059;SDS011;6091;51.432;6.880;2023-08-12T00:06:18;2.00;;;1.90;;
12059;SDS011;6091;51.432;6.880;2023-08-12T00:08:46;2.58;;;2.38;;
12059;SDS011;6091;51.432;6.880;2023-08-12T00:11:13;2.85;;;2.53;;
12059;SDS011;6091;51.432;6.880;2023-08-12T00:13:40;2.60;;;2.40;;
12059;SDS011;6091;51.432;6.880;2023-08-12T00:16:07;2.85;;;2.55;;
12059;SDS011;6091;51.432;6.880;2023-08-12T00:18:34;3.03;;;2.38;;
12059;SDS011;6091;51.432;6.880;2023-08-12T00:21:05;2.45;;;2.25;;
12059;SDS011;6091;51.432;6.880;2023-08-12T00:23:37;3.13;;;2.83;;
12059;SDS011;6091;51.432;6.880;2023-08-12T00:26:10;2.97;;;2.30;;
12059;SDS011;6091;51.432;6.880;2023-08-12T00:28:37;2.05;;;1.92;;
12059;SDS011;6091;51.432;6.880;2023-08-12T00:31:04;2.60;;;2.40;;
12059;SDS011;6091;51.432;6.880;2023-08-12T00:33:31;2.40;;;2.20;;
12059;SDS011;6091;51.432;6.880;2023-08-12T00:35:59;3.40;;;2.33;;
12059;SDS011;6091;51.432;6.880;2023-08-12T00:38:28;3.30;;;2.67;;
12059;SDS011;6091;51.432;6.880;2023-08-12T00:40:55;2.80;;;2.60;;
12059;SDS011;6091;51.432;6.880;2023-08-12T00:43:22;2.63;;;2.42;;
12059;SDS011;6091;51.432;6.880;2023-08-12T00:45:49;2.78;;;2.58;;
12059;SDS011;6091;51.432;6.880;2023-08-12T00:48:16;2.38;;;2.17;;
12059;SDS011;6091;51.432;6.880;2023-08-12T00:50:44;3.10;;;2.53;;
12059;SDS011;6091;51.432;6.880;2023-08-12T00:53:12;2.42;;;2.00;;
12059;SDS011;6091;51.432;6.880;2023-08-12T00:55:42;2.25;;;2.05;;
12059;SDS011;6091;51.432;6.880;2023-08-12T00:58:09;2.40;;;2.20;;
12059;SDS011;6091;51.432;6.880;2023-08-12T01:00:37;2.50;;;2.30;;
12059;SDS011;6091;51.432;6.880;2023-08-12T01:03:04;2.22;;;2.00;;
12059;SDS011;6091;51.432;6.880;2023-08-12T01:05:33;2.78;;;2.20;;
12059;SDS011;6091;51.432;6.880;2023-08-12T01:08:04;3.25;;;2.72;;
12059;SDS011;6091;51.432;6.880;2023-08-12T01:10:33;2.45;;;2.10;;
12059;SDS011;6091;51.432;6.880;2023-08-12T01:16:01;2.45;;;2.25;;
12059;SDS011;6091;51.432;6.880;2023-08-12T01:18:35;3.35;;;2.17;;
12059;SDS011;6091;51.432;6.880;2023-08-12T01:21:04;2.15;;;2.03;;
12059;SDS011;6091;51.432;6.880;2023-08-12T01:23:36;2.38;;;2.17;;
12059;SDS011;6091;51.432;6.880;2023-08-12T01:26:03;2.45;;;2.25;;
12059;SDS011;6091;51.432;6.880;2023-08-12T01:28:30;2.47;;;2.28;;
12059;SDS011;6091;51.432;6.880;2023-08-12T01:30:58;2.72;;;2.40;;
12059;SDS011;6091;51.432;6.880;2023-08-12T01:34:01;2.38;;;2.17;;
12059;SDS011;6091;51.432;6.880;2023-08-12T01:36:33;2.25;;;2.05;;
12059;SDS011;6091;51.432;6.880;2023-08-12T01:39:26;2.17;;;1.98;;
12059;SDS011;6091;51.432;6.880;2023-08-12T01:41:57;2.30;;;2.10;;
12059;SDS011;6091;51.432;6.880;2023-08-12T01:44:25;2.38;;;2.17;;
12059;SDS011;6091;51.432;6.880;2023-08-12T01:46:52;3.22;;;2.40;;
12059;SDS011;6091;51.432;6.880;2023-08-12T01:49:21;2.50;;;2.30;;
12059;SDS011;6091;51.432;6.880;2023-08-12T01:52:34;2.85;;;2.17;;
12059;SDS011;6091;51.432;6.880;2023-08-12T01:55:01;2.63;;;2.25;;
12059;SDS011;6091;51.432;6.880;2023-08-12T01:57:30;2.38;;;2.20;;
12059;SDS011;6091;51.432;6.880;2023-08-12T01:59:57;2.40;;;2.20;;
12059;SDS011;6091;51.432;6.880;2023-08-12T02:02:24;2.55;;;2.10;;
12059;SDS011;6091;51.432;6.880;2023-08-12T02:04:51;2.58;;;2.28;;
12059;SDS011;6091;51.432;6.880;2023-08-12T02:07:18;2.45;;;2.00;;
12059;SDS011;6091;51.432;6.880;2023-08-12T02:09:45;2.30;;;2.10;;
12059;SDS011;6091;51.432;6.880;2023-08-12T02:12:12;2.75;;;2.38;;
12059;SDS011;6091;51.432;6.880;2023-08-12T02:14:42;3.33;;;2.58;;
12059;SDS011;6091;51.432;6.880;2023-08-12T02:17:09;2.50;;;2.28;;
12059;SDS011;6091;51.432;6.880;2023-08-12T02:19:38;2.10;;;2.00;;
12059;SDS011;6091;51.432;6.880;2023-08-12T02:22:05;2.53;;;2.33;;
12059;SDS011;6091;51.432;6.880;2023-08-12T02:24:32;2.60;;;2.35;;
12059;SDS011;6091;51.432;6.880;2023-08-12T02:26:59;2.70;;;2.50;;
12059;SDS011;6091;51.432;6.880;2023-08-12T02:29:26;2.38;;;2.17;;
12059;SDS011;6091;51.432;6.880;2023-08-12T02:31:53;2.45;;;2.25;;
12059;SDS011;6091;51.432;6.880;2023-08-12T02:34:20;2.30;;;2.20;;
12059;SDS011;6091;51.432;6.880;2023-08-12T02:36:49;2.70;;;2.50;;
12059;SDS011;6091;51.432;6.880;2023-08-12T02:39:16;2.00;;;1.80;;
12059;SDS011;6091;51.432;6.880;2023-08-12T02:41:43;2.17;;;1.95;;
12059;SDS011;6091;51.432;6.880;2023-08-12T02:44:10;2.42;;;2.22;;
12059;SDS011;6091;51.432;6.880;2023-08-12T02:46:40;2.08;;;1.92;;
12059;SDS011;6091;51.432;6.880;2023-08-12T02:49:07;2.30;;;2.10;;
12059;SDS011;6091;51.432;6.880;2023-08-12T02:51:34;1.98;;;1.88;;
12059;SDS011;6091;51.432;6.880;2023-08-12T02:54:04;2.53;;;2.03;;
12059;SDS011;6091;51.432;6.880;2023-08-12T02:56:31;2.47;;;2.28;;
12059;SDS011;6091;51.432;6.880;2023-08-12T02:58:58;3.10;;;2.22;;
12059;SDS011;6091;51.432;6.880;2023-08-12T03:01:25;2.35;;;2.15;;
12059;SDS011;6091;51.432;6.880;2023-08-12T03:03:54;2.20;;;2.00;;
12059;SDS011;6091;51.432;6.880;2023-08-12T03:06:20;2.20;;;1.92;;
12059;SDS011;6091;51.432;6.880;2023-08-12T03:08:47;2.30;;;2.10;;
12059;SDS011;6091;51.432;6.880;2023-08-12T03:11:14;2.30;;;2.10;;
12059;SDS011;6091;51.432;6.880;2023-08-12T03:13:42;2.45;;;2.25;;
12059;SDS011;6091;51.432;6.880;2023-08-12T03:16:13;2.58;;;2.38;;
12059;SDS011;6091;51.432;6.880;2023-08-12T03:18:40;2.25;;;2.05;;
12059;SDS011;6091;51.432;6.880;2023-08-12T03:21:08;2.33;;;2.13;;
12059;SDS011;6091;51.432;6.880;2023-08-12T03:23:36;2.10;;;2.00;;
12059;SDS011;6091;51.432;6.880;2023-08-12T03:26:04;2.42;;;2.22;;
12059;SDS011;6091;51.432;6.880;2023-08-12T03:28:31;2.72;;;2.35;;
12059;SDS011;6091;51.432;6.880;2023-08-12T03:30:58;2.17;;;2.03;;
12059;SDS011;6091;51.432;6.880;2023-08-12T03:33:25;2.67;;;2.22;;
12059;SDS011;6091;51.432;6.880;2023-08-12T03:35:53;2.20;;;2.00;;
12059;SDS011;6091;51.432;6.880;2023-08-12T03:38:21;2.20;;;1.98;;
12059;SDS011;6091;51.432;6.880;2023-08-12T03:40:48;2.40;;;2.20;;
12059;SDS011;6091;51.432;6.880;2023-08-12T03:43:16;2.47;;;2.28;;
12059;SDS011;6091;51.432;6.880;2023-08-12T03:45:44;2.10;;;1.80;;
12059;SDS011;6091;51.432;6.880;2023-08-12T03:48:11;2.33;;;1.95;;
12059;SDS011;6091;51.432;6.880;2023-08-12T03:50:39;1.90;;;1.70;;
12059;SDS011;6091;51.432;6.880;2023-08-12T03:53:08;1.88;;;1.77;;
12059;SDS011;6091;51.432;6.880;2023-08-12T03:55:35;2.05;;;1.80;;
12059;SDS011;6091;51.432;6.880;2023-08-12T03:58:03;2.70;;;2.22;;
12059;SDS011;6091;51.432;6.880;2023-08-12T04:00:30;1.70;;;1.60;;
12059;SDS011;6091;51.432;6.880;2023-08-12T04:02:57;2.38;;;1.83;;
12059;SDS011;6091;51.432;6.880;2023-08-12T04:05:24;2.10;;;1.90;;
12059;SDS011;6091;51.432;6.880;2023-08-12T04:07:52;2.03;;;1.92;;
12059;SDS011;6091;51.432;6.880;2023-08-12T04:10:19;2.25;;;2.05;;
12059;SDS011;6091;51.432;6.880;2023-08-12T04:12:46;2.72;;;2.08;;
12059;SDS011;6091;51.432;6.880;2023-08-12T04:15:13;2.22;;;2.03;;
12059;SDS011;6091;51.432;6.880;2023-08-12T04:17:40;2.00;;;1.90;;
12059;SDS011;6091;51.432;6.880;2023-08-12T04:20:08;2.40;;;2.20;;
12059;SDS011;6091;51.432;6.880;2023-08-12T04:22:35;1.83;;;1.73;;
12059;SDS011;6091;51.432;6.880;2023-08-12T04:25:02;2.30;;;1.90;;
12059;SDS011;6091;51.432;6.880;2023-08-12T04:27:30;1.92;;;1.83;;
12059;SDS011;6091;51.432;6.880;2023-08-12T04:29:57;2.17;;;1.95;;
12059;SDS011;6091;51.432;6.880;2023-08-12T04:32:27;2.15;;;1.95;;
12059;SDS011;6091;51.432;6.880;2023-08-12T04:34:54;2.00;;;1.90;;
12059;SDS011;6091;51.432;6.880;2023-08-12T04:37:25;2.50;;;1.80;;
12059;SDS011;6091;51.432;6.880;2023-08-12T04:39:52;2.20;;;2.00;;
12059;SDS011;6091;51.432;6.880;2023-08-12T04:42:19;1.80;;;1.70;;
12059;SDS011;6091;51.432;6.880;2023-08-12T04:44:46;2.00;;;1.90;;
12059;SDS011;6091;51.432;6.880;2023-08-12T04:47:13;2.08;;;1.85;;
12059;SDS011;6091;51.432;6.880;2023-08-12T04:49:41;2.05;;;1.85;;
12059;SDS011;6091;51.432;6.880;2023-08-12T04:52:10;1.67;;;1.58;;
12059;SDS011;6091;51.432;6.880;2023-08-12T04:54:37;2.85;;;1.88;;
12059;SDS011;6091;51.432;6.880;2023-08-12T04:57:04;2.10;;;1.90;;
12059;SDS011;6091;51.432;6.880;2023-08-12T04:59:36;2.20;;;2.00;;
12059;SDS011;6091;51.432;6.880;2023-08-12T05:02:03;1.85;;;1.73;;
12059;SDS011;6091;51.432;6.880;2023-08-12T05:04:31;2.38;;;1.88;;
12059;SDS011;6091;51.432;6.880;2023-08-12T05:06:57;2.10;;;2.00;;
12059;SDS011;6091;51.432;6.880;2023-08-12T05:09:27;2.17;;;1.90;;
12059;SDS011;6091;51.432;6.880;2023-08-12T05:11:54;2.10;;;1.92;;
12059;SDS011;6091;51.432;6.880;2023-08-12T05:14:21;1.98;;;1.83;;
12059;SDS011;6091;51.432;6.880;2023-08-12T05:16:48;1.80;;;1.70;;
12059;SDS011;6091;51.432;6.880;2023-08-12T05:19:15;2.15;;;1.98;;
12059;SDS011;6091;51.432;6.880;2023-08-12T05:21:42;1.80;;;1.70;;
12059;SDS011;6091;51.432;6.880;2023-08-12T05:24:09;1.90;;;1.80;;
12059;SDS011;6091;51.432;6.880;2023-08-12T05:26:37;2.10;;;1.90;;
12059;SDS011;6091;51.432;6.880;2023-08-12T05:29:04;2.13;;;1.92;;
12059;SDS011;6091;51.432;6.880;2023-08-12T05:31:31;1.88;;;1.77;;
12059;SDS011;6091;51.432;6.880;2023-08-12T05:33:58;2.28;;;2.00;;
12059;SDS011;6091;51.432;6.880;2023-08-12T05:36:25;1.98;;;1.88;;
12059;SDS011;6091;51.432;6.880;2023-08-12T05:38:52;2.22;;;1.95;;
12059;SDS011;6091;51.432;6.880;2023-08-12T05:41:19;1.90;;;1.80;;
12059;SDS011;6091;51.432;6.880;2023-08-12T05:43:47;2.10;;;1.90;;
12059;SDS011;6091;51.432;6.880;2023-08-12T05:46:15;2.30;;;2.10;;
12059;SDS011;6091;51.432;6.880;2023-08-12T05:48:42;1.75;;;1.65;;
12059;SDS011;6091;51.432;6.880;2023-08-12T05:51:11;2.15;;;1.95;;
12059;SDS011;6091;51.432;6.880;2023-08-12T05:53:38;2.28;;;2.08;;
12059;SDS011;6091;51.432;6.880;2023-08-12T05:56:05;2.03;;;1.77;;
12059;SDS011;6091;51.432;6.880;2023-08-12T05:58:33;2.50;;;1.98;;
12059;SDS011;6091;51.432;6.880;2023-08-12T06:01:00;1.70;;;1.60;;
12059;SDS011;6091;51.432;6.880;2023-08-12T06:03:27;2.20;;;2.00;;
12059;SDS011;6091;51.432;6.880;2023-08-12T06:05:54;2.00;;;1.80;;
12059;SDS011;6091;51.432;6.880;2023-08-12T06:08:21;1.90;;;1.80;;
12059;SDS011;6091;51.432;6.880;2023-08-12T06:10:48;2.05;;;1.88;;
12059;SDS011;6091;51.432;6.880;2023-08-12T06:13:15;2.40;;;2.20;;
12059;SDS011;6091;51.432;6.880;2023-08-12T06:15:42;1.83;;;1.70;;
12059;SDS011;6091;51.432;6.880;2023-08-12T06:18:09;2.15;;;2.05;;
12059;SDS011;6091;51.432;6.880;2023-08-12T06:20:36;1.77;;;1.67;;
12059;SDS011;6091;51.432;6.880;2023-08-12T06:23:03;2.00;;;1.90;;
12059;SDS011;6091;51.432;6.880;2023-08-12T06:25:31;2.13;;;1.85;;
12059;SDS011;6091;51.432;6.880;2023-08-12T06:27:58;1.95;;;1.85;;
12059;SDS011;6091;51.432;6.880;2023-08-12T06:30:27;2.10;;;1.90;;
12059;SDS011;6091;51.432;6.880;2023-08-12T06:32:54;2.15;;;1.95;;
12059;SDS011;6091;51.432;6.880;2023-08-12T06:35:22;2.03;;;1.90;;
12059;SDS011;6091;51.432;6.880;2023-08-12T06:37:49;2.10;;;1.95;;
12059;SDS011;6091;51.432;6.880;2023-08-12T06:40:15;2.05;;;1.95;;
12059;SDS011;6091;51.432;6.880;2023-08-12T06:42:43;2.00;;;1.90;;
12059;SDS011;6091;51.432;6.880;2023-08-12T06:45:10;2.00;;;1.80;;
12059;SDS011;6091;51.432;6.880;2023-08-12T06:47:37;2.22;;;2.03;;
12059;SDS011;6091;51.432;6.880;2023-08-12T06:50:04;2.17;;;1.98;;
12059;SDS011;6091;51.432;6.880;2023-08-12T06:52:32;2.15;;;1.95;;
12059;SDS011;6091;51.432;6.880;2023-08-12T06:54:59;2.20;;;2.00;;
12059;SDS011;6091;51.432;6.880;2023-08-12T06:57:26;2.90;;;1.88;;
12059;SDS011;6091;51.432;6.880;2023-08-12T06:59:53;2.25;;;2.05;;
12059;SDS011;6091;51.432;6.880;2023-08-12T07:02:20;2.00;;;1.90;;
12059;SDS011;6091;51.432;6.880;2023-08-12T07:04:47;1.98;;;1.77;;
12059;SDS011;6091;51.432;6.880;2023-08-12T07:07:14;2.00;;;1.90;;
12059;SDS011;6091;51.432;6.880;2023-08-12T07:09:42;1.83;;;1.73;;
12059;SDS011;6091;51.432;6.880;2023-08-12T07:12:09;2.47;;;2.22;;
12059;SDS011;6091;51.432;6.880;2023-08-12T07:14:37;1.88;;;1.77;;
12059;SDS011;6091;51.432;6.880;2023-08-12T07:17:04;2.25;;;2.05;;
12059;SDS011;6091;51.432;6.880;2023-08-12T07:19:31;2.40;;;2.20;;
12059;SDS011;6091;51.432;6.880;2023-08-12T07:21:58;2.00;;;1.90;;
12059;SDS011;6091;51.432;6.880;2023-08-12T07:24:25;2.45;;;2.05;;
12059;SDS011;6091;51.432;6.880;2023-08-12T07:26:52;2.30;;;2.05;;
12059;SDS011;6091;51.432;6.880;2023-08-12T07:29:19;2.20;;;2.00;;
12059;SDS011;6091;51.432;6.880;2023-08-12T07:31:47;2.63;;;1.90;;
12059;SDS011;6091;51.432;6.880;2023-08-12T07:34:14;2.10;;;1.90;;
12059;SDS011;6091;51.432;6.880;2023-08-12T07:36:42;2.80;;;2.00;;
12059;SDS011;6091;51.432;6.880;2023-08-12T07:39:09;2.13;;;1.92;;
12059;SDS011;6091;51.432;6.880;2023-08-12T07:41:36;2.83;;;1.83;;
12059;SDS011;6091;51.432;6.880;2023-08-12T07:44:04;3.58;;;2.28;;
12059;SDS011;6091;51.432;6.880;2023-08-12T07:46:34;2.95;;;1.90;;
12059;SDS011;6091;51.432;6.880;2023-08-12T07:49:01;2.53;;;2.13;;
12059;SDS011;6091;51.432;6.880;2023-08-12T07:51:28;3.30;;;2.00;;
12059;SDS011;6091;51.432;6.880;2023-08-12T07:53:55;2.70;;;2.05;;
12059;SDS011;6091;51.432;6.880;2023-08-12T07:56:22;2.45;;;1.95;;
12059;SDS011;6091;51.432;6.880;2023-08-12T07:58:49;1.90;;;1.80;;
12059;SDS011;6091;51.432;6.880;2023-08-12T08:01:16;2.65;;;2.10;;
12059;SDS011;6091;51.432;6.880;2023-08-12T08:03:43;3.90;;;2.10;;
12059;SDS011;6091;51.432;6.880;2023-08-12T08:06:10;2.33;;;2.08;;
12059;SDS011;6091;51.432;6.880;2023-08-12T08:08:37;2.30;;;2.10;;
12059;SDS011;6091;51.432;6.880;2023-08-12T08:11:04;2.92;;;2.42;;
12059;SDS011;6091;51.432;6.880;2023-08-12T08:13:32;2.25;;;2.03;;
12059;SDS011;6091;51.432;6.880;2023-08-12T08:15:59;3.15;;;2.28;;
12059;SDS011;6091;51.432;6.880;2023-08-12T08:18:28;3.95;;;2.28;;
12059;SDS011;6091;51.432;6.880;2023-08-12T08:20:55;2.22;;;2.03;;
12059;SDS011;6091;51.432;6.880;2023-08-12T08:23:22;2.65;;;2.15;;
12059;SDS011;6091;51.432;6.880;2023-08-12T08:25:49;2.30;;;2.10;;
12059;SDS011;6091;51.432;6.880;2023-08-12T08:28:16;2.20;;;2.00;;
12059;SDS011;6091;51.432;6.880;2023-08-12T08:30:44;2.88;;;2.10;;
12059;SDS011;6091;51.432;6.880;2023-08-12T08:33:11;2.35;;;2.13;;
12059;SDS011;6091;51.432;6.880;2023-08-12T08:35:38;1.95;;;1.85;;
12059;SDS011;6091;51.432;6.880;2023-08-12T08:38:05;2.20;;;2.00;;
12059;SDS011;6091;51.432;6.880;2023-08-12T08:40:32;3.15;;;2.03;;
12059;SDS011;6091;51.432;6.880;2023-08-12T08:43:01;2.08;;;1.90;;
12059;SDS011;6091;51.432;6.880;2023-08-12T08:45:32;1.88;;;1.77;;
12059;SDS011;6091;51.432;6.880;2023-08-12T08:48:00;1.90;;;1.63;;
12059;SDS011;6091;51.432;6.880;2023-08-12T08:50:31;1.77;;;1.67;;
12059;SDS011;6091;51.432;6.880;2023-08-12T08:53:00;1.88;;;1.77;;
12059;SDS011;6091;51.432;6.880;2023-08-12T08:55:32;1.90;;;1.80;;
12059;SDS011;6091;51.432;6.880;2023-08-12T08:58:00;2.22;;;1.77;;
12059;SDS011;6091;51.432;6.880;2023-08-12T09:00:30;2.20;;;2.00;;
12059;SDS011;6091;51.432;6.880;2023-08-12T09:02:59;2.28;;;2.08;;
12059;SDS011;6091;51.432;6.880;2023-08-12T09:05:27;3.50;;;1.80;;
12059;SDS011;6091;51.432;6.880;2023-08-12T09:07:57;1.92;;;1.80;;
12059;SDS011;6091;51.432;6.880;2023-08-12T09:10:27;1.90;;;1.60;;
12059;SDS011;6091;51.432;6.880;2023-08-12T09:12:56;1.80;;;1.70;;
12059;SDS011;6091;51.432;6.880;2023-08-12T09:15:23;2.08;;;1.90;;
12059;SDS011;6091;51.432;6.880;2023-08-12T09:17:51;1.70;;;1.60;;
12059;SDS011;6091;51.432;6.880;2023-08-12T09:20:18;2.10;;;1.95;;
12059;SDS011;6091;51.432;6.880;2023-08-12T09:22:46;2.25;;;2.03;;
12059;SDS011;6091;51.432;6.880;2023-08-12T09:25:24;1.95;;;1.65;;
12059;SDS011;6091;51.432;6.880;2023-08-12T09:27:54;1.50;;;1.40;;
12059;SDS011;6091;51.432;6.880;2023-08-12T09:30:30;2.85;;;1.85;;
12059;SDS011;6091;51.432;6.880;2023-08-12T09:32:58;1.50;;;1.40;;
12059;SDS011;6091;51.432;6.880;2023-08-12T09:35:39;2.72;;;1.83;;
12059;SDS011;6091;51.432;6.880;2023-08-12T09:38:13;1.95;;;1.83;;
12059;SDS011;6091;51.432;6.880;2023-08-12T09:40:41;2.55;;;1.60;;
12059;SDS011;6091;51.432;6.880;2023-08-12T09:43:10;1.70;;;1.60;;
12059;SDS011;6091;51.432;6.880;2023-08-12T09:45:39;1.90;;;1.75;;
12059;SDS011;6091;51.432;6.880;2023-08-12T09:48:07;1.90;;;1.50;;
12059;SDS011;6091;51.432;6.880;2023-08-12T09:50:36;1.73;;;1.63;;
12059;SDS011;6091;51.432;6.880;2023-08-12T09:53:03;2.38;;;1.80;;
12059;SDS011;6091;51.432;6.880;2023-08-12T09:55:49;2.63;;;1.80;;
12059;SDS011;6091;51.432;6.880;2023-08-12T10:02:51;1.50;;;1.40;;
12059;SDS011;6091;51.432;6.880;2023-08-12T10:05:24;2.30;;;1.60;;
12059;SDS011;6091;51.432;6.880;2023-08-12T10:07:54;1.92;;;1.52;;
12059;SDS011;6091;51.432;6.880;2023-08-12T10:10:22;2.65;;;1.65;;
12059;SDS011;6091;51.432;6.880;2023-08-12T10:12:49;2.38;;;1.63;;
12059;SDS011;6091;51.432;6.880;2023-08-12T10:15:17;1.40;;;1.30;;
12059;SDS011;6091;51.432;6.880;2023-08-12T10:17:47;1.75;;;1.65;;
12059;SDS011;6091;51.432;6.880;2023-08-12T10:20:21;3.42;;;1.73;;
12059;SDS011;6091;51.432;6.880;2023-08-12T10:22:51;1.58;;;1.48;;
12059;SDS011;6091;51.432;6.880;2023-08-12T10:25:20;1.42;;;1.33;;
12059;SDS011;6091;51.432;6.880;2023-08-12T10:27:50;1.67;;;1.55;;
12059;SDS011;6091;51.432;6.880;2023-08-12T10:30:17;1.42;;;1.33;;
12059;SDS011;6091;51.432;6.880;2023-08-12T10:32:47;1.67;;;1.20;;
12059;SDS011;6091;51.432;6.880;2023-08-12T10:35:14;1.42;;;1.33;;
12059;SDS011;6091;51.432;6.880;2023-08-12T10:37:41;1.30;;;1.20;;
12059;SDS011;6091;51.432;6.880;2023-08-12T10:40:22;2.53;;;1.30;;
12059;SDS011;6091;51.432;6.880;2023-08-12T10:42:49;1.30;;;1.20;;
12059;SDS011;6091;51.432;6.880;2023-08-12T10:45:17;1.10;;;1.10;;
12059;SDS011;6091;51.432;6.880;2023-08-12T10:47:51;1.58;;;1.48;;
12059;SDS011;6091;51.432;6.880;2023-08-12T10:50:45;1.20;;;1.10;;
12059;SDS011;6091;51.432;6.880;2023-08-12T10:53:23;0.93;;;0.90;;
12059;SDS011;6091;51.432;6.880;2023-08-12T10:56:02;1.20;;;1.10;;
12059;SDS011;6091;51.432;6.880;2023-08-12T10:58:34;2.60;;;1.05;;
12059;SDS011;6091;51.432;6.880;2023-08-12T11:01:13;1.25;;;0.90;;
12059;SDS011;6091;51.432;6.880;2023-08-12T11:03:45;1.25;;;1.15;;
12059;SDS011;6091;51.432;6.880;2023-08-12T11:06:14;1.10;;;1.05;;
12059;SDS011;6091;51.432;6.880;2023-08-12T11:08:48;1.00;;;1.00;;
12059;SDS011;6091;51.432;6.880;2023-08-12T11:11:19;0.98;;;0.95;;
12059;SDS011;6091;51.432;6.880;2023-08-12T11:13:53;1.00;;;0.90;;
12059;SDS011;6091;51.432;6.880;2023-08-12T11:16:34;0.80;;;0.80;;
12059;SDS011;6091;51.432;6.880;2023-08-12T11:19:04;0.77;;;0.70;;
12059;SDS011;6091;51.432;6.880;2023-08-12T11:21:31;1.55;;;0.82;;
12059;SDS011;6091;51.432;6.880;2023-08-12T11:24:00;0.82;;;0.82;;
12059;SDS011;6091;51.432;6.880;2023-08-12T11:26:29;1.08;;;0.70;;
12059;SDS011;6091;51.432;6.880;2023-08-12T11:28:57;0.98;;;0.82;;
12059;SDS011;6091;51.432;6.880;2023-08-12T11:31:24;0.93;;;0.70;;
12059;SDS011;6091;51.432;6.880;2023-08-12T11:33:53;1.02;;;0.93;;
12059;SDS011;6091;51.432;6.880;2023-08-12T11:36:21;0.80;;;0.80;;
12059;SDS011;6091;51.432;6.880;2023-08-12T11:38:48;0.70;;;0.70;;
12059;SDS011;6091;51.432;6.880;2023-08-12T11:41:17;1.63;;;0.70;;
12059;SDS011;6091;51.432;6.880;2023-08-12T11:43:44;0.77;;;0.70;;
12059;SDS011;6091;51.432;6.880;2023-08-12T11:46:12;0.73;;;0.73;;
12059;SDS011;6091;51.432;6.880;2023-08-12T11:48:43;0.70;;;0.70;;
12059;SDS011;6091;51.432;6.880;2023-08-12T11:51:10;0.70;;;0.70;;
12059;SDS011;6091;51.432;6.880;2023-08-12T11:53:38;0.93;;;0.77;;
12059;SDS011;6091;51.432;6.880;2023-08-12T11:56:05;0.60;;;0.60;;
12059;SDS011;6091;51.432;6.880;2023-08-12T11:58:38;0.80;;;0.80;;
12059;SDS011;6091;51.432;6.880;2023-08-12T12:01:17;0.80;;;0.80;;
12059;SDS011;6091;51.432;6.880;2023-08-12T12:03:45;0.70;;;0.60;;
12059;SDS011;6091;51.432;6.880;2023-08-12T12:06:17;1.83;;;0.75;;
12059;SDS011;6091;51.432;6.880;2023-08-12T12:09:05;1.08;;;1.00;;
12059;SDS011;6091;51.432;6.880;2023-08-12T12:11:39;0.82;;;0.70;;
12059;SDS011;6091;51.432;6.880;2023-08-12T12:14:08;0.90;;;0.90;;
12059;SDS011;6091;51.432;6.880;2023-08-12T12:16:46;0.95;;;0.95;;
12059;SDS011;6091;51.432;6.880;2023-08-12T12:19:16;0.88;;;0.88;;
12059;SDS011;6091;51.432;6.880;2023-08-12T12:21:51;1.75;;;1.30;;
12059;SDS011;6091;51.432;6.880;2023-08-12T12:24:19;1.20;;;1.10;;
12059;SDS011;6091;51.432;6.880;2023-08-12T12:26:47;1.40;;;1.30;;
12059;SDS011;6091;51.432;6.880;2023-08-12T12:29:17;2.67;;;1.15;;
12059;SDS011;6091;51.432;6.880;2023-08-12T12:31:44;1.48;;;1.38;;
12059;SDS011;6091;51.432;6.880;2023-08-12T12:34:11;4.60;;;1.33;;
12059;SDS011;6091;51.432;6.880;2023-08-12T12:36:40;2.67;;;1.70;;
12059;SDS011;6091;51.432;6.880;2023-08-12T12:39:08;1.98;;;1.50;;
12059;SDS011;6091;51.432;6.880;2023-08-12T12:41:35;2.20;;;1.85;;
12059;SDS011;6091;51.432;6.880;2023-08-12T12:44:03;1.90;;;1.80;;
12059;SDS011;6091;51.432;6.880;2023-08-12T12:46:30;1.63;;;1.52;;
12059;SDS011;6091;51.432;6.880;2023-08-12T12:48:58;2.65;;;1.55;;
12059;SDS011;6091;51.432;6.880;2023-08-12T12:51:25;2.05;;;1.50;;
12059;SDS011;6091;51.432;6.880;2023-08-12T12:53:52;1.48;;;1.38;;
12059;SDS011;6091;51.432;6.880;2023-08-12T12:56:19;1.40;;;1.30;;
12059;SDS011;6091;51.432;6.880;2023-08-12T12:58:47;2.92;;;1.90;;
12059;SDS011;6091;51.432;6.880;2023-08-12T13:01:14;2.05;;;1.65;;
12059;SDS011;6091;51.432;6.880;2023-08-12T13:03:41;2.40;;;2.30;;
12059;SDS011;6091;51.432;6.880;2023-08-12T13:06:08;3.00;;;2.35;;
12059;SDS011;6091;51.432;6.880;2023-08-12T13:08:36;2.03;;;1.90;;
12059;SDS011;6091;51.432;6.880;2023-08-12T13:11:03;2.67;;;2.47;;
12059;SDS011;6091;51.432;6.880;2023-08-12T13:13:32;3.60;;;3.30;;
12059;SDS011;6091;51.432;6.880;2023-08-12T13:16:00;4.18;;;3.17;;
12059;SDS011;6091;51.432;6.880;2023-08-12T13:18:27;2.70;;;2.50;;
12059;SDS011;6091;51.432;6.880;2023-08-12T13:20:54;3.42;;;2.83;;
12059;SDS011;6091;51.432;6.880;2023-08-12T13:23:22;3.13;;;2.80;;
12059;SDS011;6091;51.432;6.880;2023-08-12T13:25:51;3.13;;;2.80;;
12059;SDS011;6091;51.432;6.880;2023-08-12T13:28:18;4.07;;;3.78;;
12059;SDS011;6091;51.432;6.880;2023-08-12T13:30:45;3.75;;;3.45;;
12059;SDS011;6091;51.432;6.880;2023-08-12T13:33:12;3.90;;;3.65;;
12059;SDS011;6091;51.432;6.880;2023-08-12T13:35:40;4.47;;;4.07;;
12059;SDS011;6091;51.432;6.880;2023-08-12T13:38:07;4.18;;;3.88;;
12059;SDS011;6091;51.432;6.880;2023-08-12T13:40:34;3.83;;;3.53;;
12059;SDS011;6091;51.432;6.880;2023-08-12T13:43:01;3.40;;;3.17;;
12059;SDS011;6091;51.432;6.880;2023-08-12T13:45:28;3.42;;;3.13;;
12059;SDS011;6091;51.432;6.880;2023-08-12T13:47:55;3.40;;;3.10;;
12059;SDS011;6091;51.432;6.880;2023-08-12T13:50:22;3.17;;;2.53;;
12059;SDS011;6091;51.432;6.880;2023-08-12T13:52:50;3.50;;;2.50;;
12059;SDS011;6091;51.432;6.880;2023-08-12T13:55:17;2.55;;;2.35;;
12059;SDS011;6091;51.432;6.880;2023-08-12T13:57:44;2.50;;;2.30;;
12059;SDS011;6091;51.432;6.880;2023-08-12T14:00:14;2.40;;;2.25;;
12059;SDS011;6091;51.432;6.880;2023-08-12T14:02:42;2.30;;;2.20;;
12059;SDS011;6091;51.432;6.880;2023-08-12T14:05:10;2.25;;;2.15;;
12059;SDS011;6091;51.432;6.880;2023-08-12T14:07:38;2.20;;;2.10;;
12059;SDS011;6091;51.432;6.880;2023-08-12T14:10:05;2.33;;;2.22;;
12059;SDS011;6091;51.432;6.880;2023-08-12T14:12:32;2.97;;;2.78;;
12059;SDS011;6091;51.432;6.880;2023-08-12T14:15:00;4.03;;;2.53;;
12059;SDS011;6091;51.432;6.880;2023-08-12T14:17:28;3.30;;;2.38;;
12059;SDS011;6091;51.432;6.880;2023-08-12T14:19:55;2.70;;;2.50;;
12059;SDS011;6091;51.432;6.880;2023-08-12T14:22:27;3.25;;;2.92;;
12059;SDS011;6091;51.432;6.880;2023-08-12T14:24:54;2.97;;;2.40;;
12059;SDS011;6091;51.432;6.880;2023-08-12T14:27:22;2.72;;;2.53;;
12059;SDS011;6091;51.432;6.880;2023-08-12T14:29:49;2.42;;;2.22;;
12059;SDS011;6091;51.432;6.880;2023-08-12T14:32:15;3.00;;;2.80;;
12059;SDS011;6091;51.432;6.880;2023-08-12T14:34:46;2.75;;;2.47;;
12059;SDS011;6091;51.432;6.880;2023-08-12T14:37:13;2.80;;;2.60;;
12059;SDS011;6091;51.432;6.880;2023-08-12T14:39:41;2.95;;;2.75;;
12059;SDS011;6091;51.432;6.880;2023-08-12T14:42:08;2.85;;;2.65;;
12059;SDS011;6091;51.432;6.880;2023-08-12T14:44:36;2.67;;;2.47;;
12059;SDS011;6091;51.432;6.880;2023-08-12T14:47:03;3.53;;;2.40;;
12059;SDS011;6091;51.432;6.880;2023-08-12T14:49:31;2.88;;;2.67;;
12059;SDS011;6091;51.432;6.880;2023-08-12T14:51:58;2.97;;;2.58;;
12059;SDS011;6091;51.432;6.880;2023-08-12T14:54:25;3.50;;;2.65;;
12059;SDS011;6091;51.432;6.880;2023-08-12T14:56:52;2.53;;;2.33;;
12059;SDS011;6091;51.432;6.880;2023-08-12T14:59:19;3.25;;;2.30;;
12059;SDS011;6091;51.432;6.880;2023-08-12T15:01:46;2.55;;;2.35;;
12059;SDS011;6091;51.432;6.880;2023-08-12T15:04:13;2.63;;;2.30;;
12059;SDS011;6091;51.432;6.880;2023-08-12T15:06:40;2.60;;;2.40;;
12059;SDS011;6091;51.432;6.880;2023-08-12T15:09:07;2.63;;;2.10;;
12059;SDS011;6091;51.432;6.880;2023-08-12T15:11:35;2.08;;;1.90;;
12059;SDS011;6091;51.432;6.880;2023-08-12T15:14:02;2.08;;;1.98;;
12059;SDS011;6091;51.432;6.880;2023-08-12T15:16:30;4.53;;;1.92;;